Time;durP1;ratioP1;P1;durP2;ratioP2;P2;SDS_P1;SDS_P2;PMS_P1;PMS_P2;Temp;Humidity;BMP_temperature;BMP_pressure;BME280_temperature;BME280_humidity;BME280_pressure;Samples;Min_cycle;Max_cycle;Signal;HPM_P1;HPM_P2
2022/03/13 00:03:23;;;;;;;7.70;4.00;;;;;;;0.53;37.97;96385.28;10331022;28;20695;-60
2022/03/13 00:08:29;;;;;;;10.93;4.53;;;;;;;-0.24;41.47;96470.91;10330422;28;20232;-60
2022/03/13 00:13:32;;;;;;;6.50;2.73;;;;;;;0.92;36.55;96350.00;10330673;28;20186;-58
2022/03/13 00:18:33;;;;;;;5.23;3.23;;;;;;;0.55;37.63;96367.94;10330814;28;20217;-57
2022/03/13 00:23:34;;;;;;;7.67;4.13;;;;;;;0.28;39.94;96446.16;10330472;28;20198;-60
2022/03/13 00:28:37;;;;;;;9.43;4.30;;;;;;;-0.53;42.03;96451.31;10330110;28;20623;-57
2022/03/13 00:33:38;;;;;;;6.63;3.97;;;;;;;-0.81;44.07;96509.53;10329957;28;20193;-59
2022/03/13 00:38:38;;;;;;;8.87;4.20;;;;;;;-1.01;43.53;96492.72;10329815;28;20213;-57
2022/03/13 00:43:41;;;;;;;8.93;4.60;;;;;;;-1.31;45.91;96542.44;10329389;28;20240;-59
2022/03/13 00:48:41;;;;;;;7.33;3.80;;;;;;;-1.67;47.58;96587.22;10329186;28;20767;-61
2022/03/13 00:53:43;;;;;;;7.57;4.40;;;;;;;-2.05;47.88;96590.13;10329386;28;20244;-59
2022/03/13 00:58:43;;;;;;;6.43;4.20;;;;;;;-1.87;46.10;96542.09;10329192;28;20213;-60
2022/03/13 01:03:44;;;;;;;11.33;4.27;;;;;;;-2.15;48.29;96600.88;10329209;28;20189;-58
2022/03/13 01:08:46;;;;;;;10.67;4.53;;;;;;;-2.02;47.18;96560.00;10335667;28;20218;-58
2022/03/13 01:13:47;;;;;;;9.93;4.47;;;;;;;-2.23;48.50;96605.59;10337238;28;21037;-60
2022/03/13 01:18:50;;;;;;;8.40;4.17;;;;;;;-2.10;49.29;96620.34;10337358;28;20296;-58
2022/03/13 01:23:59;;;;;;;9.40;4.37;;;;;;;-2.39;49.35;96632.94;10336985;28;20204;-56
2022/03/13 01:29:00;;;;;;;10.97;5.50;;;;;;;-2.33;48.08;96577.03;10336756;28;20248;-59
2022/03/13 01:34:01;;;;;;;8.27;4.03;;;;;;;-2.46;49.24;96593.97;10336739;28;20691;-58
2022/03/13 01:39:03;;;;;;;7.77;3.97;;;;;;;-2.81;51.55;96660.66;10336287;28;20275;-56
2022/03/13 01:44:05;;;;;;;7.17;4.00;;;;;;;-2.98;52.43;96669.19;10335605;28;20216;-59
2022/03/13 01:49:07;;;;;;;7.83;4.53;;;;;;;-3.21;53.14;96684.84;10335834;28;20237;-58
2022/03/13 01:54:09;;;;;;;8.67;4.30;;;;;;;-3.19;53.16;96688.16;10335753;28;20205;-58
2022/03/13 01:59:11;;;;;;;9.47;4.77;;;;;;;-3.27;54.44;96701.31;10335342;28;20213;-54
2022/03/13 02:04:12;;;;;;;9.23;4.83;;;;;;;-3.34;54.78;96710.19;10334984;28;20208;-57
2022/03/13 02:09:12;;;;;;;9.63;4.80;;;;;;;-3.27;53.96;96680.84;10335394;28;20217;-58
2022/03/13 02:14:17;;;;;;;9.70;4.60;;;;;;;-3.14;53.64;96663.13;10335153;28;20673;-59
2022/03/13 02:19:17;;;;;;;11.00;5.00;;;;;;;-3.15;53.85;96685.38;10334995;28;20205;-59
2022/03/13 02:24:28;;;;;;;7.87;4.23;;;;;;;-3.37;54.13;96675.28;10334827;28;20197;-53
2022/03/13 02:29:28;;;;;;;7.77;4.20;;;;;;;-3.65;55.98;96694.47;10334657;28;20225;-58
2022/03/13 02:34:29;;;;;;;6.90;4.50;;;;;;;-3.63;57.38;96737.94;10334390;28;20626;-59
2022/03/13 02:39:33;;;;;;;7.40;4.50;;;;;;;-3.62;55.36;96676.44;10334287;28;20247;-52
2022/03/13 02:44:34;;;;;;;7.10;4.13;;;;;;;-3.82;57.10;96705.47;10333510;28;20252;-58
2022/03/13 02:49:35;;;;;;;10.77;4.30;;;;;;;-3.65;56.43;96704.72;10384943;22;20239;-57
2022/03/13 02:54:35;;;;;;;6.43;3.90;;;;;;;-3.97;57.75;96724.91;10415426;28;20594;-57
2022/03/13 02:59:36;;;;;;;11.07;4.73;;;;;;;-4.03;58.35;96750.75;10415098;28;20299;-59
2022/03/13 03:04:36;;;;;;;6.73;4.07;;;;;;;-4.19;58.38;96742.09;10415107;28;20188;-58
2022/03/13 03:09:36;;;;;;;9.67;4.20;;;;;;;-4.34;60.27;96776.81;10414627;28;20316;-55
2022/03/13 03:14:37;;;;;;;5.73;3.60;;;;;;;-4.19;57.88;96716.50;10414598;28;20195;-57
2022/03/13 03:19:37;;;;;;;8.47;3.83;;;;;;;-4.20;58.06;96720.78;10414354;28;20239;-55
2022/03/13 03:24:38;;;;;;;6.93;4.13;;;;;;;-4.17;58.55;96719.81;10416072;28;20198;-59
2022/03/13 03:29:38;;;;;;;10.17;4.67;;;;;;;-4.21;58.16;96703.78;10413496;28;20235;-59
2022/03/13 03:34:38;;;;;;;8.83;4.30;;;;;;;-4.14;57.62;96692.38;10413774;28;20237;-60
2022/03/13 03:39:39;;;;;;;6.73;4.07;;;;;;;-4.13;58.47;96704.28;10413926;28;20232;-57
2022/03/13 03:44:39;;;;;;;7.80;4.27;;;;;;;-4.20;58.78;96728.44;10413033;28;20302;-54
2022/03/13 03:49:39;;;;;;;9.07;4.37;;;;;;;-4.34;58.77;96726.47;10413066;28;20660;-55
2022/03/13 03:54:40;;;;;;;8.07;4.30;;;;;;;-4.50;61.45;96792.78;10412848;28;20199;-56
2022/03/13 03:59:41;;;;;;;9.83;4.47;;;;;;;-4.48;60.09;96741.56;10412886;28;20770;-54
2022/03/13 04:04:41;;;;;;;9.23;4.27;;;;;;;-4.69;61.60;96769.66;10412254;28;20210;-56
2022/03/13 04:09:42;;;;;;;13.03;5.20;;;;;;;-4.93;64.01;96809.81;10412454;28;20228;-56
2022/03/13 04:14:42;;;;;;;7.13;4.00;;;;;;;-5.04;63.11;96804.25;10412337;28;20242;-57
2022/03/13 04:19:43;;;;;;;10.90;4.67;;;;;;;-4.69;61.24;96756.06;10412076;28;20244;-58
2022/03/13 04:24:43;;;;;;;9.00;4.63;;;;;;;-4.69;61.61;96776.50;10411940;28;20195;-58
2022/03/13 04:29:43;;;;;;;9.70;5.00;;;;;;;-4.70;62.51;96770.56;10411549;28;20245;-55
2022/03/13 04:34:44;;;;;;;14.43;4.00;;;;;;;-4.49;61.46;96742.47;10411768;28;20221;-56
2022/03/13 04:39:44;;;;;;;6.87;4.17;;;;;;;-4.27;60.13;96718.53;10410691;28;20209;-55
2022/03/13 04:44:45;;;;;;;8.27;4.47;;;;;;;-4.62;63.16;96765.16;10410688;28;20220;-58
2022/03/13 04:49:45;;;;;;;8.07;4.30;;;;;;;-4.54;61.00;96732.44;10410652;28;20241;-58
2022/03/13 04:54:46;;;;;;;8.73;4.80;;;;;;;-4.60;60.03;96706.28;10410493;28;20690;-58
2022/03/13 04:59:46;;;;;;;11.77;4.73;;;;;;;-4.74;62.73;96757.97;10410460;28;20714;-55
2022/03/13 05:04:47;;;;;;;12.97;4.33;;;;;;;-4.70;63.87;96785.06;10409671;28;20258;-57
2022/03/13 05:09:47;;;;;;;7.13;3.90;;;;;;;-4.70;63.88;96775.69;10411070;28;20234;-55
2022/03/13 05:14:48;;;;;;;8.53;4.27;;;;;;;-4.67;63.27;96779.81;10410827;28;20197;-59
2022/03/13 05:19:48;;;;;;;11.40;4.77;;;;;;;-4.30;60.39;96712.69;10410815;28;20281;-58
2022/03/13 05:24:48;;;;;;;9.67;5.27;;;;;;;-4.51;62.17;96752.75;10410998;28;20203;-57
2022/03/13 05:29:49;;;;;;;8.27;4.60;;;;;;;-4.64;62.35;96761.81;10410458;28;20235;-57
2022/03/13 05:34:50;;;;;;;11.30;5.03;;;;;;;-4.33;61.24;96714.53;10410617;28;20259;-54
2022/03/13 05:39:51;;;;;;;10.53;5.17;;;;;;;-4.31;59.53;96694.84;10410362;28;20262;-57
2022/03/13 05:44:52;;;;;;;9.30;4.93;;;;;;;-3.62;57.42;96640.59;10410050;28;20195;-58
2022/03/13 05:49:52;;;;;;;10.00;4.57;;;;;;;-3.24;55.15;96611.53;10409930;28;20617;-55
2022/03/13 05:54:53;;;;;;;6.47;4.20;;;;;;;-3.12;54.91;96608.38;10416701;28;20191;-54
2022/03/13 05:59:53;;;;;;;8.33;4.33;;;;;;;-3.17;54.70;96609.47;10417692;28;20273;-54
2022/03/13 06:04:53;;;;;;;11.47;4.50;;;;;;;-2.83;51.63;96533.47;10417598;28;20199;-58
2022/03/13 06:09:54;;;;;;;7.83;4.53;;;;;;;-2.53;51.09;96538.75;10416162;28;20285;-57
2022/03/13 06:14:55;;;;;;;13.03;5.20;;;;;;;-2.37;48.81;96465.22;10417194;28;20204;-55
2022/03/13 06:19:56;;;;;;;67.60;22.97;;;;;;;-2.33;50.05;96512.06;10417085;28;20247;-58
2022/03/13 06:24:59;;;;;;;30.67;12.70;;;;;;;-2.39;50.48;96514.94;10416968;28;20689;-59
2022/03/13 06:30:00;;;;;;;17.13;8.00;;;;;;;-2.38;50.09;96519.19;10416342;28;20231;-59
2022/03/13 06:35:00;;;;;;;9.50;4.83;;;;;;;-1.79;48.39;96496.31;10416583;28;20205;-59
2022/03/13 06:40:02;;;;;;;12.23;5.37;;;;;;;-0.73;47.74;96507.34;10416078;28;20209;-59
2022/03/13 06:45:03;;;;;;;9.50;4.97;;;;;;;0.63;44.96;96479.09;10415842;28;20752;-60
2022/03/13 06:50:04;;;;;;;9.53;4.80;;;;;;;1.52;43.49;96472.28;10415776;28;20242;-61
2022/03/13 06:55:04;;;;;;;8.73;4.60;;;;;;;2.74;39.33;96379.97;10415857;28;20208;-62
2022/03/13 07:00:06;;;;;;;6.50;3.77;;;;;;;2.87;36.05;96259.13;10415253;28;20690;-58
2022/03/13 07:05:06;;;;;;;7.60;4.37;;;;;;;2.75;35.88;96273.00;10414224;28;20193;-55
2022/03/13 07:10:12;;;;;;;7.10;3.87;;;;;;;2.48;36.93;96293.09;10414802;28;20228;-58
2022/03/13 07:15:13;;;;;;;11.50;5.67;;;;;;;2.00;37.28;96275.19;10414820;28;20262;-55
2022/03/13 07:20:15;;;;;;;11.23;5.33;;;;;;;2.19;37.58;96294.47;10414296;28;20476;-60
2022/03/13 07:25:15;;;;;;;10.47;4.40;;;;;;;2.07;37.44;96291.06;10433395;28;20225;-58
2022/03/13 07:30:16;;;;;;;9.07;3.93;;;;;;;1.99;37.73;96296.78;10443899;28;20219;-58
2022/03/13 07:35:16;;;;;;;7.83;4.77;;;;;;;2.27;37.10;96292.97;10455232;28;20313;-58
2022/03/13 07:40:19;;;;;;;10.80;4.80;;;;;;;2.54;37.09;96315.06;10454803;28;20218;-56
2022/03/13 07:45:20;;;;;;;6.70;3.93;;;;;;;2.71;35.61;96274.16;10454363;28;20196;-56
2022/03/13 07:50:21;;;;;;;9.40;4.10;;;;;;;2.78;34.98;96263.22;10454500;28;20289;-59
2022/03/13 07:55:22;;;;;;;6.83;4.37;;;;;;;2.75;35.37;96267.84;10454290;28;20217;-62
2022/03/13 08:00:23;;;;;;;4.00;3.13;;;;;;;2.93;35.30;96268.16;10421143;28;20236;-56
2022/03/13 08:05:23;;;;;;;7.80;4.23;;;;;;;3.31;34.20;96262.53;10422756;28;20187;-63
2022/03/13 08:10:24;;;;;;;7.97;4.67;;;;;;;3.63;34.07;96235.81;10453932;28;20230;-62
2022/03/13 08:15:24;;;;;;;9.47;5.33;;;;;;;3.78;33.26;96227.72;10453606;28;20200;-61
2022/03/13 08:20:24;;;;;;;9.47;5.17;;;;;;;3.98;32.04;96176.84;10453334;28;20576;-58
2022/03/13 08:25:25;;;;;;;7.30;4.47;;;;;;;4.93;31.35;96204.19;10453562;28;20662;-63
2022/03/13 08:30:25;;;;;;;10.37;4.33;;;;;;;6.03;30.36;96192.69;10452946;28;20711;-60
2022/03/13 08:35:26;;;;;;;7.70;4.73;;;;;;;5.61;29.53;96141.06;10440384;28;20191;-61
2022/03/13 08:40:27;;;;;;;7.60;4.33;;;;;;;6.50;29.04;96153.63;10428385;28;20196;-61
2022/03/13 08:45:27;;;;;;;11.60;4.37;;;;;;;6.28;28.48;96135.81;10412729;28;20276;-57
2022/03/13 08:50:29;;;;;;;8.10;4.17;;;;;;;6.55;28.11;96120.19;10383456;28;20806;-61
2022/03/13 08:55:30;;;;;;;4.60;3.13;;;;;;;6.32;27.80;96104.16;10401128;28;20199;-59
2022/03/13 09:00:32;;;;;;;6.57;4.30;;;;;;;5.93;28.14;96114.72;10423460;28;20208;-59
2022/03/13 09:05:32;;;;;;;5.57;3.90;;;;;;;6.38;27.73;96113.97;10411824;28;20208;-58
2022/03/13 09:10:34;;;;;;;7.47;4.50;;;;;;;7.23;26.68;96089.41;10339780;22;20273;-60
2022/03/13 09:15:34;;;;;;;8.57;3.73;;;;;;;7.28;26.25;96076.75;10282641;28;20194;-60
2022/03/13 09:20:34;;;;;;;7.00;3.57;;;;;;;7.39;25.82;96066.09;10282045;28;20215;-59
2022/03/13 09:25:36;;;;;;;7.30;4.33;;;;;;;7.72;24.66;96042.00;10282380;28;20194;-60
2022/03/13 09:30:36;;;;;;;4.80;3.30;;;;;;;8.13;24.40;96029.13;10289385;28;20241;-57
2022/03/13 09:35:36;;;;;;;6.50;3.80;;;;;;;8.30;24.53;96038.66;10290288;28;20609;-60
2022/03/13 09:40:37;;;;;;;5.40;3.70;;;;;;;8.43;25.01;96097.41;10289835;28;20222;-59
2022/03/13 09:45:38;;;;;;;4.70;2.73;;;;;;;7.70;24.20;96062.19;10289605;28;20198;-59
2022/03/13 09:50:39;;;;;;;9.00;3.30;;;;;;;7.59;25.01;96076.31;10309863;28;20305;-60
2022/03/13 09:55:39;;;;;;;7.77;4.47;;;;;;;7.70;24.72;96103.91;10329201;28;20201;-59
2022/03/13 10:00:40;;;;;;;7.60;4.23;;;;;;;7.55;25.70;96111.47;10329586;28;20206;-61
2022/03/13 10:05:45;;;;;;;3.93;2.87;;;;;;;8.48;25.98;96194.38;10343615;28;20321;-58
2022/03/13 10:10:50;;;;;;;7.67;4.73;;;;;;;7.86;25.31;96117.06;10328949;28;20369;-60
2022/03/13 10:15:50;;;;;;;6.43;3.80;;;;;;;8.80;25.01;96157.09;10328815;28;20782;-60
2022/03/13 10:20:51;;;;;;;6.63;4.17;;;;;;;8.70;25.66;96175.53;10328161;28;20210;-62
2022/03/13 10:25:53;;;;;;;8.43;4.67;;;;;;;8.37;25.49;96138.00;10328530;28;20198;-60
2022/03/13 10:30:59;;;;;;;10.10;4.70;;;;;;;10.77;24.27;96200.66;10327811;28;20640;-62
2022/03/13 10:36:07;;;;;;;5.93;4.50;;;;;;;10.08;23.77;96156.66;10328479;28;20205;-62
2022/03/13 10:41:08;;;;;;;5.17;3.77;;;;;;;11.52;22.85;96135.50;10326267;28;20216;-63
2022/03/13 10:46:09;;;;;;;5.97;3.67;;;;;;;11.05;22.70;96129.44;10310199;28;20236;-62
2022/03/13 10:51:12;;;;;;;8.70;4.10;;;;;;;13.35;21.69;96160.38;10327351;28;20214;-62
2022/03/13 10:56:14;;;;;;;6.18;4.15;;;;;;;13.61;24.08;96272.16;10327751;28;20268;-62
2022/03/13 11:01:19;;;;;;;5.47;4.15;;;;;;;13.86;23.31;96223.41;10324202;28;20217;-62
2022/03/13 11:06:22;;;;;;;7.43;4.65;;;;;;;14.86;21.76;96178.47;10325461;28;20210;-64
2022/03/13 11:11:29;;;;;;;5.85;3.92;;;;;;;17.17;20.91;96231.00;10326856;28;20973;-61
2022/03/13 11:16:31;;;;;;;7.07;4.30;;;;;;;16.82;21.13;96208.28;10325962;28;20197;-64
2022/03/13 11:21:35;;;;;;;10.18;5.28;;;;;;;13.88;22.26;96116.06;10325364;28;20190;-62
2022/03/13 11:26:40;;;;;;;7.65;4.50;;;;;;;13.24;23.63;96209.00;10340900;28;20246;-61
2022/03/13 11:31:42;;;;;;;8.07;4.40;;;;;;;13.76;22.85;96207.13;10355806;28;20202;-61
2022/03/13 11:36:46;;;;;;;6.90;4.30;;;;;;;15.74;22.48;96282.50;10372182;28;20259;-62
2022/03/13 11:41:47;;;;;;;5.57;3.95;;;;;;;16.29;21.84;96266.53;10372207;28;20216;-61
2022/03/13 11:46:49;;;;;;;10.30;4.47;;;;;;;12.64;23.50;96146.00;10372106;28;20592;-62
2022/03/13 11:51:50;;;;;;;7.85;4.70;;;;;;;11.45;24.49;96187.03;10371531;28;20201;-63
2022/03/13 11:56:50;;;;;;;5.17;3.80;;;;;;;10.75;24.82;96204.44;10371730;28;20236;-61
2022/03/13 12:01:52;;;;;;;6.60;4.23;;;;;;;9.54;26.28;96206.91;10371809;28;20193;-62
2022/03/13 12:06:56;;;;;;;7.60;4.50;;;;;;;11.39;25.61;96282.94;10370924;28;20252;-63
2022/03/13 12:11:56;;;;;;;9.17;5.53;;;;;;;11.39;25.62;96268.03;10371184;28;20185;-61
2022/03/13 12:17:08;;;;;;;8.30;5.40;;;;;;;11.55;25.54;96274.19;10371213;28;20209;-62
2022/03/13 12:22:08;;;;;;;11.00;5.33;;;;;;;12.44;25.55;96299.97;10370882;28;20293;-63
2022/03/13 12:27:09;;;;;;;5.87;3.10;;;;;;;10.47;25.25;96194.38;10370678;28;20352;-63
2022/03/13 12:32:11;;;;;;;6.90;3.37;;;;;;;10.59;25.67;96193.03;10370716;28;20197;-62
2022/03/13 12:37:12;;;;;;;7.17;4.80;;;;;;;11.09;25.85;96245.22;10370019;28;20206;-61
2022/03/13 12:42:20;;;;;;;6.03;3.30;;;;;;;9.53;26.09;96180.94;10370337;28;20221;-62
2022/03/13 12:47:27;;;;;;;8.07;5.33;;;;;;;10.07;26.47;96241.38;10370240;28;20627;-61
2022/03/13 12:52:27;;;;;;;8.53;5.13;;;;;;;10.18;26.98;96250.69;10358674;28;20222;-62
2022/03/13 12:57:28;;;;;;;6.17;3.93;;;;;;;10.50;25.69;96215.00;10314481;28;20240;-57
2022/03/13 13:02:32;;;;;;;7.40;4.63;;;;;;;10.35;25.48;96202.63;10337762;28;20198;-62
2022/03/13 13:07:37;;;;;;;8.17;4.40;;;;;;;10.94;25.43;96250.41;10328645;28;20301;-62
2022/03/13 13:12:39;;;;;;;7.83;4.60;;;;;;;10.74;26.65;96266.50;10329080;28;20198;-62
2022/03/13 13:17:40;;;;;;;8.03;3.27;;;;;;;10.87;25.80;96250.25;10328794;28;20715;-62
2022/03/13 13:22:44;;;;;;;8.30;4.50;;;;;;;10.75;26.14;96262.91;10328999;28;20269;-61
2022/03/13 13:27:51;;;;;;;8.37;5.00;;;;;;;11.69;25.70;96298.84;10328645;28;20229;-63
2022/03/13 13:33:04;;;;;;;9.00;5.20;;;;;;;11.04;26.10;96275.41;10343903;28;20285;-62
2022/03/13 13:38:26;;;;;;;7.23;4.83;;;;;;;11.60;25.95;96295.47;10328193;28;20209;-62
2022/03/13 13:43:29;;;;;;;10.67;5.50;;;;;;;11.23;25.04;96270.75;10328722;28;20210;-62
2022/03/13 13:48:46;;;;;;;6.67;4.30;;;;;;;10.29;25.93;96245.16;10328067;28;20704;-62
2022/03/13 13:54:11;;;;;;;7.70;3.97;;;;;;;10.35;26.42;96264.63;10328726;28;20190;-62
2022/03/13 13:59:17;;;;;;;6.83;4.33;;;;;;;10.35;26.62;96257.59;10328015;28;20225;-61
2022/03/13 14:04:17;;;;;;;7.13;4.10;;;;;;;10.52;25.93;96265.41;10328127;28;20197;-61
2022/03/13 14:09:18;;;;;;;7.03;4.37;;;;;;;10.89;25.97;96266.63;10327738;28;20233;-60
2022/03/13 14:14:18;;;;;;;9.17;4.47;;;;;;;10.69;25.79;96267.00;10331463;28;20301;-62
2022/03/13 14:19:23;;;;;;;7.03;4.07;;;;;;;11.46;25.40;96288.34;10335144;28;20224;-59
2022/03/13 14:24:23;;;;;;;12.27;4.88;;;;;;;11.94;25.10;96310.03;10334829;28;20194;-62
2022/03/13 14:29:24;;;;;;;5.43;3.95;;;;;;;12.04;24.10;96238.94;10334448;28;20222;-59
2022/03/13 14:34:24;;;;;;;8.80;6.10;;;;;;;12.90;25.51;96327.94;10334403;28;20194;-63
2022/03/13 14:39:25;;;;;;;10.10;4.53;;;;;;;12.62;24.83;96275.97;10333833;28;20241;-62
2022/03/13 14:44:26;;;;;;;8.77;4.63;;;;;;;13.85;23.33;96269.16;10333967;28;20202;-59
2022/03/13 14:49:27;;;;;;;7.47;4.95;;;;;;;14.09;23.58;96275.88;10333778;28;20995;-61
2022/03/13 14:54:27;;;;;;;9.73;4.53;;;;;;;12.46;24.45;96248.03;10333596;28;20202;-62
2022/03/13 14:59:28;;;;;;;5.77;3.77;;;;;;;11.97;24.68;96236.19;10333846;28;20210;-60
2022/03/13 15:04:28;;;;;;;6.63;3.90;;;;;;;12.72;24.58;96263.38;10333619;28;20360;-61
2022/03/13 15:09:28;;;;;;;7.25;3.70;;;;;;;11.39;25.12;96215.59;10378177;22;20715;-59
2022/03/13 15:14:29;;;;;;;7.43;3.63;;;;;;;13.03;24.30;96264.97;10373163;28;20708;-56
2022/03/13 15:19:29;;;;;;;5.78;4.03;;;;;;;12.62;23.62;96226.84;10373406;28;20205;-60
2022/03/13 15:24:34;;;;;;;5.53;3.70;;;;;;;11.98;24.74;96243.06;10372507;28;20731;-57
2022/03/13 15:29:36;;;;;;;6.13;3.33;;;;;;;11.80;24.89;96216.28;10372836;28;20620;-60
2022/03/13 15:34:37;;;;;;;4.70;3.30;;;;;;;12.13;24.56;96241.28;10373122;28;20216;-58
2022/03/13 15:39:37;;;;;;;8.07;3.90;;;;;;;11.78;24.72;96240.06;10371658;28;20779;-58
2022/03/13 15:44:38;;;;;;;7.37;4.00;;;;;;;11.42;25.16;96259.00;10372693;28;20224;-59
2022/03/13 15:49:38;;;;;;;5.50;3.67;;;;;;;12.04;25.04;96270.44;10371924;28;20228;-56
2022/03/13 15:54:38;;;;;;;5.47;3.70;;;;;;;13.36;24.28;96294.34;10371297;28;20466;-58
2022/03/13 15:59:39;;;;;;;5.03;3.72;;;;;;;14.56;23.40;96320.22;10372007;28;20205;-59
2022/03/13 16:04:39;;;;;;;6.72;4.18;;;;;;;13.15;24.56;96283.75;10371633;28;20608;-58
2022/03/13 16:09:40;;;;;;;8.38;5.00;;;;;;;12.15;25.40;96267.38;10371758;28;20261;-58
2022/03/13 16:14:40;;;;;;;9.17;4.30;;;;;;;10.28;26.84;96245.31;10371793;28;20193;-58
2022/03/13 16:19:43;;;;;;;5.57;3.73;;;;;;;9.29;27.89;96263.56;10371729;28;20259;-59
2022/03/13 16:24:44;;;;;;;7.40;4.37;;;;;;;9.02;28.31;96272.44;10371450;28;20276;-59
2022/03/13 16:29:44;;;;;;;7.80;4.03;;;;;;;8.77;28.39;96264.50;10370940;28;20221;-60
2022/03/13 16:34:47;;;;;;;8.00;4.67;;;;;;;8.53;29.11;96281.69;10371427;28;20213;-59
2022/03/13 16:39:52;;;;;;;8.83;4.73;;;;;;;8.47;29.59;96311.03;10370073;28;20252;-59
2022/03/13 16:44:53;;;;;;;14.37;4.90;;;;;;;8.29;29.81;96307.59;10371192;28;20255;-61
2022/03/13 16:49:53;;;;;;;7.93;4.40;;;;;;;8.13;29.41;96306.50;10370614;28;20233;-61
2022/03/13 16:54:53;;;;;;;8.53;4.80;;;;;;;8.04;30.98;96341.34;10370411;28;20238;-60
2022/03/13 16:59:54;;;;;;;9.13;4.60;;;;;;;7.85;29.95;96309.19;10371029;28;20212;-55
2022/03/13 17:04:54;;;;;;;13.83;7.10;;;;;;;7.66;30.60;96327.63;10370129;28;20193;-55
2022/03/13 17:09:55;;;;;;;9.47;4.93;;;;;;;7.49;30.33;96327.44;10369907;28;20260;-58
2022/03/13 17:14:57;;;;;;;7.90;4.37;;;;;;;7.43;30.05;96320.19;10370223;28;20256;-58
2022/03/13 17:19:57;;;;;;;7.93;4.40;;;;;;;7.38;30.44;96311.19;10369962;28;20194;-58
2022/03/13 17:24:59;;;;;;;13.37;5.00;;;;;;;7.24;30.70;96322.91;10369981;28;20197;-59
2022/03/13 17:29:59;;;;;;;6.80;4.33;;;;;;;7.06;31.50;96336.72;10368171;28;20252;-54
2022/03/13 17:34:59;;;;;;;6.23;4.23;;;;;;;6.95;31.54;96336.88;10370173;28;20181;-54
2022/03/13 17:40:00;;;;;;;7.50;4.40;;;;;;;6.90;31.20;96311.28;10368842;28;20244;-56
2022/03/13 17:45:00;;;;;;;6.17;4.30;;;;;;;6.83;31.03;96322.41;10369668;28;20201;-58
2022/03/13 17:50:01;;;;;;;7.67;3.47;;;;;;;6.85;30.66;96317.88;10374483;28;20248;-56
2022/03/13 17:55:01;;;;;;;7.23;4.37;;;;;;;6.77;31.27;96332.44;10376668;28;20190;-59
2022/03/13 18:00:04;;;;;;;6.87;4.67;;;;;;;6.81;31.21;96326.94;10375132;28;20937;-55
2022/03/13 18:05:14;;;;;;;6.43;3.60;;;;;;;6.78;30.60;96323.66;10376322;28;20236;-56
2022/03/13 18:10:14;;;;;;;7.20;4.50;;;;;;;6.57;31.44;96343.84;10375734;28;20260;-57
2022/03/13 18:15:16;;;;;;;8.00;3.80;;;;;;;6.61;30.90;96337.41;10376091;28;20672;-60
2022/03/13 18:20:16;;;;;;;7.30;4.13;;;;;;;6.36;31.75;96346.66;10375418;28;20215;-55
2022/03/13 18:25:16;;;;;;;6.00;4.47;;;;;;;6.58;30.87;96329.88;10375735;28;20623;-58
2022/03/13 18:30:17;;;;;;;8.10;4.53;;;;;;;6.35;32.09;96345.81;10374069;28;20722;-57
2022/03/13 18:35:18;;;;;;;8.07;4.70;;;;;;;6.37;31.65;96346.50;10375602;28;20292;-59
2022/03/13 18:40:19;;;;;;;6.43;3.57;;;;;;;6.58;31.29;96327.28;10374987;28;20214;-57
2022/03/13 18:45:19;;;;;;;10.70;4.73;;;;;;;6.29;32.31;96350.75;10374951;28;20197;-58
2022/03/13 18:50:20;;;;;;;8.33;4.73;;;;;;;6.45;31.48;96337.16;10374653;28;20647;-55
2022/03/13 18:55:20;;;;;;;4.67;3.43;;;;;;;6.41;31.85;96329.63;10374465;28;20667;-54
2022/03/13 19:00:21;;;;;;;8.03;4.53;;;;;;;6.41;31.85;96342.66;10373650;28;20205;-56
2022/03/13 19:05:22;;;;;;;8.50;4.70;;;;;;;6.33;31.46;96349.53;10374071;28;20193;-58
2022/03/13 19:10:23;;;;;;;11.30;5.20;;;;;;;6.38;31.90;96362.94;10373585;28;20225;-59
2022/03/13 19:15:23;;;;;;;8.60;5.20;;;;;;;6.31;32.23;96361.81;10373030;28;20256;-54
2022/03/13 19:20:24;;;;;;;6.93;3.67;;;;;;;6.39;32.11;96357.59;10372950;28;20224;-54
2022/03/13 19:25:24;;;;;;;8.13;5.03;;;;;;;6.22;32.38;96360.91;10373425;28;20326;-58
2022/03/13 19:30:26;;;;;;;13.07;5.90;;;;;;;6.10;32.83;96378.41;10372613;28;20236;-57
2022/03/13 19:35:27;;;;;;;8.17;3.90;;;;;;;6.25;32.15;96358.03;10372977;28;20221;-57
2022/03/13 19:40:27;;;;;;;11.43;5.87;;;;;;;6.02;33.12;96362.69;10372247;28;20237;-58
2022/03/13 19:45:28;;;;;;;8.93;5.53;;;;;;;6.02;32.56;96349.69;10372239;28;20200;-59
2022/03/13 19:50:28;;;;;;;7.53;4.33;;;;;;;5.97;32.50;96339.69;10372263;28;20231;-54
2022/03/13 19:55:29;;;;;;;7.57;4.90;;;;;;;5.74;33.01;96335.66;10417780;28;20188;-53
2022/03/13 20:00:29;;;;;;;14.30;5.63;;;;;;;5.77;33.22;96335.41;10427346;28;20196;-55
2022/03/13 20:05:30;;;;;;;8.63;5.50;;;;;;;5.59;33.34;96346.47;10431021;28;20242;-56
2022/03/13 20:10:30;;;;;;;8.93;4.80;;;;;;;5.59;33.64;96359.47;10428645;28;20220;-59
2022/03/13 20:15:31;;;;;;;13.73;5.80;;;;;;;5.54;33.16;96343.44;10442531;28;20196;-57
2022/03/13 20:20:31;;;;;;;13.50;6.90;;;;;;;5.42;33.86;96331.53;10453203;28;20212;-56
2022/03/13 20:25:32;;;;;;;10.00;4.73;;;;;;;5.41;33.49;96335.09;10440214;28;20270;-59
2022/03/13 20:30:32;;;;;;;9.17;5.10;;;;;;;5.47;33.09;96305.97;10411321;28;20290;-59
2022/03/13 20:35:34;;;;;;;7.53;4.30;;;;;;;5.47;32.94;96300.78;10450777;28;20210;-58
2022/03/13 20:40:36;;;;;;;10.17;5.10;;;;;;;5.25;33.95;96328.59;10448535;28;20207;-57
2022/03/13 20:45:37;;;;;;;11.57;5.50;;;;;;;5.32;33.20;96302.94;10452172;28;20184;-58
2022/03/13 20:50:37;;;;;;;9.47;3.80;;;;;;;5.24;32.89;96277.63;10452063;28;20288;-60
2022/03/13 20:55:38;;;;;;;9.57;5.13;;;;;;;5.28;33.16;96298.97;10439322;28;20216;-60
2022/03/13 21:00:38;;;;;;;5.50;3.33;;;;;;;5.27;33.33;96295.56;10430765;28;20210;-55
2022/03/13 21:05:39;;;;;;;8.30;4.50;;;;;;;5.10;33.19;96288.38;10427315;28;20568;-53
2022/03/13 21:10:39;;;;;;;9.40;3.70;;;;;;;5.09;33.06;96289.34;10426398;28;20604;-54
2022/03/13 21:15:39;;;;;;;8.70;5.00;;;;;;;5.05;33.30;96285.38;10421584;28;20618;-56
2022/03/13 21:20:40;;;;;;;12.37;3.60;;;;;;;5.13;32.62;96283.78;10455728;22;20318;-56
2022/03/13 21:25:43;;;;;;;9.40;4.17;;;;;;;5.16;32.16;96256.69;10416600;28;20184;-56
2022/03/13 21:30:43;;;;;;;7.23;5.10;;;;;;;4.92;32.63;96276.06;10418082;28;20685;-56
2022/03/13 21:35:48;;;;;;;7.43;4.90;;;;;;;5.01;32.64;96277.03;10418396;28;20555;-59
2022/03/13 21:40:49;;;;;;;10.70;5.03;;;;;;;4.91;32.66;96271.81;10418328;28;20596;-59
2022/03/13 21:45:49;;;;;;;11.97;4.60;;;;;;;4.98;31.66;96241.78;10418328;28;20200;-60
2022/03/13 21:50:49;;;;;;;9.83;4.73;;;;;;;4.78;33.09;96284.22;10417958;28;20224;-59
2022/03/13 21:55:50;;;;;;;9.53;4.60;;;;;;;4.56;33.18;96288.59;10417855;28;20208;-60
2022/03/13 22:00:50;;;;;;;12.67;5.43;;;;;;;4.78;32.25;96289.41;10417913;28;20291;-59
2022/03/13 22:05:51;;;;;;;10.07;4.67;;;;;;;4.68;32.63;96291.13;10417589;28;20249;-58
2022/03/13 22:10:52;;;;;;;7.20;4.17;;;;;;;4.17;34.41;96337.66;10417181;28;20228;-56
2022/03/13 22:15:52;;;;;;;10.00;4.40;;;;;;;4.57;32.09;96282.47;10417553;28;20219;-60
2022/03/13 22:20:52;;;;;;;8.53;4.90;;;;;;;4.38;33.20;96314.34;10416931;28;20244;-55
2022/03/13 22:25:53;;;;;;;4.47;3.37;;;;;;;4.74;32.73;96314.78;10416900;28;20286;-59
2022/03/13 22:30:53;;;;;;;9.73;4.63;;;;;;;4.91;32.11;96310.75;10416637;28;20228;-59
2022/03/13 22:35:54;;;;;;;9.90;5.47;;;;;;;4.77;32.31;96317.09;10415993;28;20197;-60
2022/03/13 22:40:54;;;;;;;8.93;4.97;;;;;;;4.44;33.20;96323.34;10416249;28;20204;-57
2022/03/13 22:45:56;;;;;;;8.30;4.57;;;;;;;4.26;33.90;96354.25;10416340;28;20200;-57
2022/03/13 22:51:02;;;;;;;8.53;5.07;;;;;;;4.35;33.30;96355.25;10415918;28;20220;-56
2022/03/13 22:56:04;;;;;;;9.60;4.80;;;;;;;4.33;33.46;96345.00;10415770;28;20208;-57
2022/03/13 23:01:07;;;;;;;9.60;5.47;;;;;;;4.21;34.17;96370.19;10397951;28;20236;-59
2022/03/13 23:06:08;;;;;;;8.57;5.10;;;;;;;4.25;34.22;96378.53;10415017;28;20245;-59
2022/03/13 23:11:10;;;;;;;10.17;5.60;;;;;;;4.08;34.39;96372.13;10414430;28;20331;-59
2022/03/13 23:16:11;;;;;;;8.10;4.10;;;;;;;4.34;33.36;96361.41;10414481;28;20242;-58
2022/03/13 23:21:14;;;;;;;14.63;5.70;;;;;;;4.25;33.34;96353.41;10413943;28;20233;-54
2022/03/13 23:26:15;;;;;;;10.63;5.60;;;;;;;4.26;33.65;96370.63;10414138;28;20251;-58